Time;durP1;ratioP1;P1;durP2;ratioP2;P2;SDS_P1;SDS_P2;PMS_P1;PMS_P2;Temp;Humidity;BMP_temperature;BMP_pressure;BME280_temperature;BME280_humidity;BME280_pressure;Samples;Min_cycle;Max_cycle;Signal;HPM_P1;HPM_P2
2024/02/13 00:00:28;;;;;;;5.10;2.65;;;;;;;4.46;72.94;99557.75;5040835;28;20048;-42
2024/02/13 00:02:55;;;;;;;2.42;1.60;;;;;;;4.44;73.56;99560.28;5044503;28;20045;-43
2024/02/13 00:05:22;;;;;;;4.30;2.08;;;;;;;4.39;73.12;99558.50;5037257;28;20146;-42
2024/02/13 00:07:49;;;;;;;3.35;1.25;;;;;;;4.38;73.64;99562.75;5036017;28;20670;-43
2024/02/13 00:10:16;;;;;;;1.95;1.00;;;;;;;4.37;73.01;99558.47;5041346;28;20085;-45
2024/02/13 00:12:43;;;;;;;4.35;2.08;;;;;;;4.36;72.90;99567.00;5040908;28;20490;-45
2024/02/13 00:15:18;;;;;;;4.28;1.38;;;;;;;4.35;72.84;99565.25;5042341;28;20063;-43
2024/02/13 00:17:46;;;;;;;5.13;2.40;;;;;;;4.34;72.97;99572.13;5040182;28;20049;-44
2024/02/13 00:20:14;;;;;;;1.77;1.58;;;;;;;4.32;73.15;99572.94;5038843;28;20045;-42
2024/02/13 00:22:41;;;;;;;5.07;2.15;;;;;;;4.31;73.12;99572.06;5040363;28;20159;-44
2024/02/13 00:25:09;;;;;;;2.53;1.88;;;;;;;4.29;73.36;99571.16;5037243;28;20048;-47
2024/02/13 00:27:36;;;;;;;1.65;1.55;;;;;;;4.29;73.70;99576.28;5037270;28;20624;-47
2024/02/13 00:30:05;;;;;;;2.25;2.15;;;;;;;4.30;73.53;99572.91;5043023;28;20067;-42
2024/02/13 00:32:33;;;;;;;2.85;1.40;;;;;;;4.31;73.48;99579.75;5043198;28;20566;-44
2024/02/13 00:35:03;;;;;;;2.15;1.45;;;;;;;4.33;74.01;99583.19;5045541;28;20053;-45
2024/02/13 00:37:31;;;;;;;5.03;2.20;;;;;;;4.35;73.87;99589.22;5045553;28;20088;-47
2024/02/13 00:39:58;;;;;;;0.75;0.75;;;;;;;4.36;74.05;99585.81;5044444;28;20411;-43
2024/02/13 00:42:26;;;;;;;1.50;1.30;;;;;;;4.37;73.74;99582.41;5041410;28;20056;-45
2024/02/13 00:44:54;;;;;;;4.65;1.83;;;;;;;4.37;74.08;99578.97;5043381;28;20079;-47
2024/02/13 00:47:24;;;;;;;1.73;1.45;;;;;;;4.39;74.12;99587.53;5037586;28;20142;-43
2024/02/13 00:49:51;;;;;;;1.80;1.70;;;;;;;4.41;74.95;99595.25;5041943;28;20059;-46
2024/02/13 00:52:17;;;;;;;1.85;1.65;;;;;;;4.38;74.82;99590.97;5045882;28;20053;-45
2024/02/13 00:54:44;;;;;;;3.80;1.80;;;;;;;4.45;74.75;99592.78;5035049;28;20508;-43
2024/02/13 00:57:11;;;;;;;2.25;2.08;;;;;;;4.44;74.55;99590.19;5042334;28;20041;-43
2024/02/13 00:59:40;;;;;;;1.98;0.75;;;;;;;4.48;74.03;99594.53;5040775;28;20473;-43
2024/02/13 01:02:08;;;;;;;1.55;1.45;;;;;;;4.48;74.83;99587.69;5047423;28;20053;-43
2024/02/13 01:04:36;;;;;;;2.28;1.55;;;;;;;4.51;74.41;99592.00;5037795;28;20057;-48
2024/02/13 01:07:04;;;;;;;2.88;1.33;;;;;;;4.50;74.46;99595.41;5044580;28;20056;-43
2024/02/13 01:09:31;;;;;;;2.22;1.63;;;;;;;4.49;74.99;99593.66;5046728;28;20745;-45
2024/02/13 01:11:59;;;;;;;2.33;2.03;;;;;;;4.48;75.10;99597.97;5045448;28;20049;-48
2024/02/13 01:14:26;;;;;;;6.13;1.80;;;;;;;4.49;75.04;99593.66;5046567;28;20057;-43
2024/02/13 01:16:55;;;;;;;2.08;1.45;;;;;;;4.50;74.69;99592.84;5045281;28;20049;-44
2024/02/13 01:19:23;;;;;;;2.20;1.98;;;;;;;4.46;75.52;99594.50;5041472;28;20056;-45
2024/02/13 01:21:50;;;;;;;2.50;2.00;;;;;;;4.51;75.03;99586.88;5044599;28;20572;-44
2024/02/13 01:24:18;;;;;;;2.47;1.33;;;;;;;4.54;74.59;99581.78;5046377;28;20124;-45
2024/02/13 01:26:45;;;;;;;1.58;0.68;;;;;;;4.55;75.51;99593.78;5045306;28;20398;-46
2024/02/13 01:32:43;;;;;;;2.15;1.98;;;;;;;4.55;75.22;99593.78;5035163;28;20060;-44
2024/02/13 01:35:13;;;;;;;4.15;2.05;;;;;;;4.59;75.45;99592.97;5042514;28;20045;-42
2024/02/13 01:37:43;;;;;;;1.30;1.10;;;;;;;4.58;75.36;99588.69;5046000;28;20680;-45
2024/02/13 01:40:12;;;;;;;1.67;0.45;;;;;;;4.60;75.60;99592.13;5044478;28;20453;-44
2024/02/13 01:42:40;;;;;;;2.65;1.83;;;;;;;4.61;75.12;99598.13;5043671;28;20045;-42
2024/02/13 01:45:12;;;;;;;1.70;1.45;;;;;;;4.62;75.41;99604.97;5040707;28;20165;-45
2024/02/13 01:47:42;;;;;;;5.95;2.20;;;;;;;4.61;75.40;99599.00;5044894;28;20060;-43
2024/02/13 01:50:13;;;;;;;1.20;1.10;;;;;;;4.60;75.34;99602.38;5045293;28;20259;-43
2024/02/13 01:52:43;;;;;;;2.05;1.95;;;;;;;4.60;75.35;99607.53;5045294;28;20475;-44
2024/02/13 01:55:12;;;;;;;3.60;1.45;;;;;;;4.62;75.94;99605.84;5042412;28;20048;-42
2024/02/13 01:57:40;;;;;;;1.95;1.58;;;;;;;4.63;74.90;99612.69;5046856;28;20595;-43
2024/02/13 02:00:13;;;;;;;4.63;1.20;;;;;;;4.63;75.49;99612.69;5043712;28;20787;-46
2024/02/13 02:02:42;;;;;;;6.60;1.90;;;;;;;4.61;75.55;99619.53;5046055;28;20056;-45
2024/02/13 02:05:11;;;;;;;2.55;1.90;;;;;;;4.64;75.31;99618.69;5042419;28;20041;-44
2024/02/13 02:07:42;;;;;;;2.13;0.98;;;;;;;4.66;75.50;99621.28;5045449;28;21521;-46
2024/02/13 02:10:09;;;;;;;7.20;1.85;;;;;;;4.66;75.46;99621.28;5042287;28;20077;-44
2024/02/13 02:12:36;;;;;;;1.95;1.02;;;;;;;4.69;75.60;99627.31;5038285;28;20056;-44
2024/02/13 02:15:06;;;;;;;2.95;1.70;;;;;;;4.72;74.65;99629.94;5043810;28;20057;-45
2024/02/13 02:17:33;;;;;;;3.35;1.63;;;;;;;4.75;75.60;99626.53;5043055;28;20145;-43
2024/02/13 02:20:02;;;;;;;2.80;1.65;;;;;;;4.78;75.15;99626.59;5039262;28;20046;-44
2024/02/13 02:22:29;;;;;;;2.83;1.30;;;;;;;4.82;75.17;99632.63;5043198;28;20045;-44
2024/02/13 02:24:56;;;;;;;2.28;1.45;;;;;;;4.82;74.70;99633.50;5037705;28;20549;-43
2024/02/13 02:27:23;;;;;;;1.98;1.38;;;;;;;4.84;74.92;99636.97;5038468;28;20063;-44
2024/02/13 02:29:50;;;;;;;4.93;1.55;;;;;;;4.88;75.35;99632.72;5038042;28;20044;-45
2024/02/13 02:32:17;;;;;;;2.85;1.90;;;;;;;4.89;75.04;99640.44;5040041;28;20085;-43
2024/02/13 02:34:45;;;;;;;4.03;1.83;;;;;;;4.91;75.50;99632.75;5043622;28;20098;-44
2024/02/13 02:37:12;;;;;;;2.28;1.45;;;;;;;4.94;75.14;99637.06;5041252;28;20046;-43
2024/02/13 02:39:39;;;;;;;5.38;1.85;;;;;;;4.92;75.31;99631.03;5036362;28;20053;-44
2024/02/13 02:42:06;;;;;;;2.38;1.73;;;;;;;4.92;74.54;99638.75;5036344;28;20056;-44
2024/02/13 02:44:35;;;;;;;3.35;1.42;;;;;;;4.88;75.25;99631.03;5047311;28;20148;-47
2024/02/13 02:47:05;;;;;;;2.80;1.75;;;;;;;4.85;74.98;99632.66;5034813;28;20131;-41
2024/02/13 02:49:31;;;;;;;1.92;1.58;;;;;;;4.82;74.49;99630.94;5040055;28;20081;-43
2024/02/13 02:51:59;;;;;;;3.60;1.73;;;;;;;4.79;75.38;99632.59;5039857;28;20059;-44
2024/02/13 02:54:26;;;;;;;2.75;1.77;;;;;;;4.76;74.46;99643.66;5043314;28;20072;-43
2024/02/13 02:56:53;;;;;;;2.08;1.88;;;;;;;4.73;75.07;99638.50;5042972;28;20110;-45
2024/02/13 02:59:20;;;;;;;2.28;1.85;;;;;;;4.70;75.08;99633.31;5047725;28;20549;-44
2024/02/13 03:01:47;;;;;;;3.22;1.33;;;;;;;4.71;75.27;99635.03;5041896;28;20049;-47
2024/02/13 03:04:14;;;;;;;2.40;1.80;;;;;;;4.71;75.85;99642.75;5043782;28;20049;-44
2024/02/13 03:06:41;;;;;;;1.92;1.52;;;;;;;4.72;75.60;99631.63;5041663;28;20049;-47
2024/02/13 03:09:08;;;;;;;2.63;2.42;;;;;;;4.73;75.38;99641.06;5037724;28;20053;-46
2024/02/13 03:11:35;;;;;;;2.40;2.05;;;;;;;4.71;75.64;99645.31;5043631;28;20049;-43
2024/02/13 03:14:04;;;;;;;2.42;1.42;;;;;;;4.71;74.88;99650.44;5041406;28;20445;-44
2024/02/13 03:16:34;;;;;;;8.25;1.48;;;;;;;4.70;76.02;99643.59;5041210;28;20052;-44
2024/02/13 03:19:03;;;;;;;2.22;1.80;;;;;;;4.71;75.47;99650.44;5039890;28;20126;-42
2024/02/13 03:21:30;;;;;;;3.40;1.40;;;;;;;4.74;75.10;99645.34;5038419;28;20143;-45
2024/02/13 03:23:58;;;;;;;5.50;2.30;;;;;;;4.75;75.27;99639.38;5036036;28;20052;-46
2024/02/13 03:26:24;;;;;;;3.13;1.55;;;;;;;4.74;75.25;99646.22;5038559;28;20095;-45
2024/02/13 03:28:51;;;;;;;3.03;2.00;;;;;;;4.73;75.73;99648.78;5041327;28;20136;-45
2024/02/13 03:31:18;;;;;;;2.88;1.73;;;;;;;4.71;75.77;99641.03;5039383;28;20150;-43
2024/02/13 03:33:45;;;;;;;2.03;1.52;;;;;;;4.73;75.44;99643.63;5041822;28;20048;-43
2024/02/13 03:36:16;;;;;;;2.60;1.63;;;;;;;4.73;75.16;99643.63;5041199;28;20045;-46
2024/02/13 03:38:45;;;;;;;3.60;1.63;;;;;;;4.73;75.03;99646.19;5034362;28;20041;-43
2024/02/13 03:41:11;;;;;;;2.38;2.05;;;;;;;4.73;75.49;99646.19;5042712;28;20131;-42
2024/02/13 03:43:41;;;;;;;2.55;1.52;;;;;;;4.74;75.73;99640.22;5036654;28;20045;-46
2024/02/13 03:46:08;;;;;;;2.03;1.15;;;;;;;4.73;76.36;99638.50;5038179;28;20559;-44
2024/02/13 03:48:36;;;;;;;4.53;1.33;;;;;;;4.78;75.56;99642.00;5040206;28;20056;-43
2024/02/13 03:51:04;;;;;;;1.80;1.45;;;;;;;4.80;76.23;99636.88;5042636;28;20057;-45
2024/02/13 03:53:33;;;;;;;1.48;1.38;;;;;;;4.84;75.82;99636.09;5021988;28;20087;-45
2024/02/13 03:56:01;;;;;;;4.78;2.22;;;;;;;4.88;75.15;99641.28;5042679;28;20564;-45
2024/02/13 03:58:28;;;;;;;2.40;1.75;;;;;;;4.89;75.34;99635.31;5040115;28;20135;-43
2024/02/13 04:00:55;;;;;;;4.10;1.90;;;;;;;4.93;76.26;99645.63;5042432;28;20490;-44
2024/02/13 04:03:26;;;;;;;2.55;1.77;;;;;;;4.94;75.27;99645.66;5040906;28;20056;-46
2024/02/13 04:05:53;;;;;;;3.78;1.65;;;;;;;4.95;75.31;99649.06;5041086;28;20537;-44
2024/02/13 04:08:20;;;;;;;2.58;1.73;;;;;;;4.97;76.10;99637.13;5041902;28;20053;-44
2024/02/13 04:10:47;;;;;;;2.38;1.45;;;;;;;4.97;76.13;99647.38;5039857;28;20052;-45
2024/02/13 04:13:15;;;;;;;1.70;1.45;;;;;;;4.96;76.62;99645.66;5039523;28;20045;-43
2024/02/13 04:15:42;;;;;;;3.80;0.40;;;;;;;4.96;76.93;99643.09;5041671;28;20627;-43
2024/02/13 04:18:09;;;;;;;1.45;1.35;;;;;;;4.98;76.89;99649.09;5044611;28;20052;-43
2024/02/13 04:20:37;;;;;;;2.53;1.85;;;;;;;5.02;76.03;99645.72;5042264;28;20044;-44
2024/02/13 04:23:04;;;;;;;3.88;1.75;;;;;;;5.04;76.71;99654.34;5041217;28;20048;-43
2024/02/13 04:25:32;;;;;;;3.03;1.83;;;;;;;5.02;76.36;99645.72;5043063;28;20049;-44
2024/02/13 04:27:59;;;;;;;4.35;1.50;;;;;;;5.00;76.83;99645.72;5051047;28;20049;-44
2024/02/13 04:30:25;;;;;;;2.38;1.75;;;;;;;5.02;77.32;99650.88;5048551;28;20052;-44
2024/02/13 04:32:52;;;;;;;3.30;1.40;;;;;;;5.04;76.49;99659.47;5048231;28;20052;-44
2024/02/13 04:35:19;;;;;;;1.77;1.00;;;;;;;5.05;76.59;99661.19;5042568;28;20426;-46
2024/02/13 04:37:46;;;;;;;2.22;2.03;;;;;;;5.05;76.31;99648.34;5044565;28;20049;-44
2024/02/13 04:40:13;;;;;;;2.08;1.50;;;;;;;5.06;75.96;99647.50;5044496;28;20048;-47
2024/02/13 04:42:40;;;;;;;1.55;1.30;;;;;;;5.02;75.96;99650.88;5036618;28;20071;-46
2024/02/13 04:45:07;;;;;;;4.32;2.00;;;;;;;5.01;75.95;99654.28;5043650;28;20152;-46
2024/02/13 04:47:34;;;;;;;2.53;1.42;;;;;;;4.98;75.60;99667.06;5046080;28;20045;-44
2024/02/13 04:50:06;;;;;;;6.68;1.88;;;;;;;4.98;75.99;99674.78;5036656;28;20056;-44
2024/02/13 04:52:34;;;;;;;1.80;1.55;;;;;;;4.96;76.62;99673.91;5024070;28;20130;-45
2024/02/13 04:55:01;;;;;;;6.57;1.75;;;;;;;4.96;76.30;99681.59;5037152;28;20067;-45
2024/02/13 04:57:27;;;;;;;4.53;1.77;;;;;;;4.97;75.78;99688.44;5040295;28;20053;-47
2024/02/13 04:59:57;;;;;;;3.58;2.20;;;;;;;4.96;75.57;99679.88;5040485;28;20053;-42
2024/02/13 05:02:24;;;;;;;4.80;1.58;;;;;;;4.96;76.53;99679.88;5041333;28;20103;-44
2024/02/13 05:07:38;;;;;;;1.77;1.67;;;;;;;4.91;75.82;99668.69;5037926;28;20049;-44
2024/02/13 05:10:05;;;;;;;1.63;1.52;;;;;;;4.88;76.63;99664.38;5042288;28;20051;-46
2024/02/13 05:12:32;;;;;;;2.00;1.65;;;;;;;4.84;76.01;99657.50;5041937;28;20055;-48
2024/02/13 05:14:59;;;;;;;4.38;1.75;;;;;;;4.85;76.55;99663.47;5041416;28;20052;-45
2024/02/13 05:17:26;;;;;;;4.47;3.03;;;;;;;4.83;75.84;99660.88;5045694;28;20056;-44
2024/02/13 05:19:53;;;;;;;1.38;1.15;;;;;;;4.83;76.63;99660.88;5044465;28;20041;-45
2024/02/13 05:22:20;;;;;;;2.45;2.25;;;;;;;4.81;76.23;99657.44;5047182;28;20056;-46
2024/02/13 05:24:46;;;;;;;3.08;1.83;;;;;;;4.81;75.64;99657.44;5042686;28;20079;-46
2024/02/13 05:27:13;;;;;;;2.10;1.90;;;;;;;4.82;76.67;99658.28;5045092;28;20078;-44
2024/02/13 05:29:41;;;;;;;3.72;1.60;;;;;;;4.82;76.53;99659.16;5040976;28;20048;-43
2024/02/13 05:32:08;;;;;;;2.33;1.35;;;;;;;4.81;75.75;99667.69;5038955;28;20053;-45
2024/02/13 05:34:36;;;;;;;2.45;2.25;;;;;;;4.81;75.84;99675.41;5039537;28;20053;-44
2024/02/13 05:37:05;;;;;;;2.13;1.90;;;;;;;4.80;75.62;99678.78;5033764;28;20055;-42
2024/02/13 05:39:31;;;;;;;3.17;2.10;;;;;;;4.79;75.83;99674.50;5037635;28;20053;-49
2024/02/13 05:41:58;;;;;;;5.18;0.65;;;;;;;4.79;76.63;99684.75;5041404;28;20241;-43
2024/02/13 05:44:25;;;;;;;3.03;1.73;;;;;;;4.80;76.02;99683.06;5037745;28;20051;-46
2024/02/13 05:46:55;;;;;;;2.17;2.08;;;;;;;4.79;76.60;99674.50;5038412;28;20509;-44
2024/02/13 05:49:22;;;;;;;1.88;1.55;;;;;;;4.79;76.26;99664.22;5037702;28;20061;-43
2024/02/13 05:51:49;;;;;;;1.88;1.77;;;;;;;4.78;75.80;99662.53;5035325;28;20053;-43
2024/02/13 05:54:16;;;;;;;1.55;1.45;;;;;;;4.75;75.67;99665.91;5036231;28;20081;-43
2024/02/13 05:56:43;;;;;;;1.33;1.15;;;;;;;4.77;75.67;99671.06;5038211;28;20048;-44
2024/02/13 05:59:11;;;;;;;3.53;2.15;;;;;;;4.76;75.75;99667.63;5038366;28;20061;-45
2024/02/13 06:01:37;;;;;;;2.20;1.70;;;;;;;4.75;75.48;99667.59;5036885;28;20049;-45
2024/02/13 06:04:05;;;;;;;2.38;1.73;;;;;;;4.77;75.91;99663.38;5035177;28;20060;-45
2024/02/13 06:06:36;;;;;;;1.90;1.80;;;;;;;4.75;76.61;99658.22;5036415;28;20176;-42
2024/02/13 06:09:06;;;;;;;3.78;1.52;;;;;;;4.77;75.86;99658.22;5037837;28;20046;-44
2024/02/13 06:11:36;;;;;;;2.22;1.77;;;;;;;4.76;76.25;99659.94;5037872;28;20084;-43
2024/02/13 06:14:03;;;;;;;2.05;1.85;;;;;;;4.75;76.61;99663.34;5038077;28;20145;-46
2024/02/13 06:16:30;;;;;;;1.42;1.33;;;;;;;4.73;76.06;99659.03;5040175;28;20060;-44
2024/02/13 06:18:56;;;;;;;5.72;1.73;;;;;;;4.73;76.41;99664.16;5042685;28;20080;-43
2024/02/13 06:21:24;;;;;;;3.80;2.47;;;;;;;4.73;76.25;99659.03;5038241;28;20045;-44
2024/02/13 06:23:53;;;;;;;3.30;1.98;;;;;;;4.72;76.15;99663.28;5033225;28;20053;-45
2024/02/13 06:26:20;;;;;;;1.98;1.60;;;;;;;4.70;76.40;99664.94;5032571;28;20049;-46
2024/02/13 06:28:46;;;;;;;1.63;1.50;;;;;;;4.70;76.22;99669.25;5043573;28;20104;-45
2024/02/13 06:31:14;;;;;;;2.83;1.95;;;;;;;4.69;76.80;99667.53;5037703;28;20055;-43
2024/02/13 06:33:40;;;;;;;4.32;1.55;;;;;;;4.69;75.96;99662.41;5041798;28;20072;-47
2024/02/13 06:36:10;;;;;;;2.40;2.20;;;;;;;4.68;75.88;99660.66;5039314;28;20053;-44
2024/02/13 06:38:37;;;;;;;1.77;1.48;;;;;;;4.66;76.75;99662.34;5039166;28;20077;-45
2024/02/13 06:41:05;;;;;;;1.42;1.17;;;;;;;4.66;75.94;99662.34;5035051;28;20049;-43
2024/02/13 06:43:33;;;;;;;2.88;1.48;;;;;;;4.63;76.63;99669.13;5034660;28;20065;-46
2024/02/13 06:45:59;;;;;;;3.53;2.05;;;;;;;4.63;76.59;99669.13;5039884;28;20060;-42
2024/02/13 06:48:26;;;;;;;2.97;1.85;;;;;;;4.63;75.83;99669.13;5035695;28;20049;-45
2024/02/13 06:50:53;;;;;;;2.10;1.67;;;;;;;4.62;76.56;99672.53;5039484;28;20054;-44
2024/02/13 06:53:20;;;;;;;1.63;1.50;;;;;;;4.63;75.99;99684.53;5037334;28;20057;-43
2024/02/13 06:55:46;;;;;;;3.92;1.85;;;;;;;4.63;76.53;99686.25;5038289;28;20045;-44
2024/02/13 06:58:16;;;;;;;2.85;2.05;;;;;;;4.63;76.62;99687.09;5037588;28;20561;-44
2024/02/13 07:00:43;;;;;;;2.80;2.42;;;;;;;4.65;76.00;99681.13;5038173;28;20057;-44
2024/02/13 07:03:10;;;;;;;3.17;1.92;;;;;;;4.65;76.34;99687.13;5033826;28;20056;-44
2024/02/13 07:05:37;;;;;;;2.70;1.40;;;;;;;4.63;75.78;99679.41;5041922;28;20060;-43
2024/02/13 07:08:04;;;;;;;2.95;2.30;;;;;;;4.62;76.03;99682.81;5040847;28;20052;-45
2024/02/13 07:10:31;;;;;;;3.47;1.77;;;;;;;4.61;76.05;99686.22;5042174;28;20041;-45
2024/02/13 07:12:58;;;;;;;5.45;1.88;;;;;;;4.61;76.06;99686.22;5042795;28;20056;-42
2024/02/13 07:15:25;;;;;;;3.22;1.75;;;;;;;4.60;75.96;99692.16;5037552;28;20049;-46
2024/02/13 07:17:52;;;;;;;2.55;1.75;;;;;;;4.60;76.17;99689.59;5039245;28;20092;-43
2024/02/13 07:20:27;;;;;;;3.40;1.80;;;;;;;4.60;76.31;99694.72;5031760;28;20055;-43
2024/02/13 07:22:54;;;;;;;1.08;0.93;;;;;;;4.57;76.52;99687.00;5033760;28;20453;-45
2024/02/13 07:25:21;;;;;;;3.15;2.22;;;;;;;4.58;76.43;99686.16;5028608;28;20112;-47
2024/02/13 07:27:49;;;;;;;1.48;1.38;;;;;;;4.57;76.87;99694.72;5035589;28;20057;-48
2024/02/13 07:30:16;;;;;;;2.88;2.60;;;;;;;4.56;76.29;99682.69;5032598;28;20146;-43
2024/02/13 07:32:45;;;;;;;3.40;1.48;;;;;;;4.56;76.25;99692.97;5036062;28;20060;-42
2024/02/13 07:35:14;;;;;;;3.25;1.40;;;;;;;4.58;76.22;99696.44;5034821;28;20061;-45
2024/02/13 07:37:41;;;;;;;2.15;1.67;;;;;;;4.56;76.14;99694.69;5030522;28;20137;-42
2024/02/13 07:40:08;;;;;;;1.15;1.15;;;;;;;4.56;76.62;99697.25;5032208;28;20136;-48
2024/02/13 07:42:35;;;;;;;2.15;1.73;;;;;;;4.57;76.85;99697.28;5031972;28;20041;-45
2024/02/13 07:45:03;;;;;;;1.75;1.33;;;;;;;4.55;76.91;99695.50;5028998;28;20044;-43
2024/02/13 07:47:30;;;;;;;2.05;1.95;;;;;;;4.54;76.99;99697.22;5036537;28;20048;-44
2024/02/13 07:49:58;;;;;;;1.63;1.45;;;;;;;4.54;77.16;99707.47;5027774;28;20081;-44
2024/02/13 07:52:25;;;;;;;3.90;1.50;;;;;;;4.56;76.76;99695.53;5034557;28;20044;-44
2024/02/13 07:54:52;;;;;;;1.77;1.38;;;;;;;4.58;76.18;99699.00;5036330;28;20529;-45
2024/02/13 07:57:20;;;;;;;1.13;1.02;;;;;;;4.59;77.21;99707.56;5030227;28;20437;-44
2024/02/13 07:59:46;;;;;;;1.60;1.50;;;;;;;4.61;76.22;99706.75;5030296;28;20053;-44
2024/02/13 08:02:14;;;;;;;2.25;1.17;;;;;;;4.61;76.58;99704.19;5030868;28;20056;-44
2024/02/13 08:04:41;;;;;;;1.58;1.48;;;;;;;4.62;76.39;99703.34;5033213;28;20056;-45
2024/02/13 08:07:09;;;;;;;2.92;2.75;;;;;;;4.62;76.96;99713.59;5033763;28;20574;-46
2024/02/13 08:09:37;;;;;;;1.38;1.27;;;;;;;4.63;76.73;99714.47;5036617;28;20052;-43
2024/02/13 08:12:06;;;;;;;2.53;1.35;;;;;;;4.63;77.36;99720.44;5033507;28;20042;-44
2024/02/13 08:14:34;;;;;;;3.28;1.50;;;;;;;4.64;77.17;99711.06;5034454;28;20053;-43
2024/02/13 08:17:08;;;;;;;5.35;1.63;;;;;;;4.66;76.75;99708.53;5028039;28;20045;-43
2024/02/13 08:19:40;;;;;;;1.35;1.25;;;;;;;4.69;77.50;99703.44;5017172;28;20084;-43
2024/02/13 08:22:07;;;;;;;2.05;1.95;;;;;;;4.71;76.69;99712.00;5034911;28;20539;-44
2024/02/13 08:24:35;;;;;;;1.88;1.23;;;;;;;4.73;76.76;99710.34;5034810;28;20392;-48
2024/02/13 08:27:03;;;;;;;2.03;1.30;;;;;;;4.76;76.81;99715.50;5031309;28;20047;-46
2024/02/13 08:29:29;;;;;;;3.95;1.80;;;;;;;4.82;76.62;99720.75;5032728;28;20060;-43
2024/02/13 08:31:57;;;;;;;4.53;1.92;;;;;;;4.86;76.39;99717.38;5029327;28;20045;-44
2024/02/13 08:34:24;;;;;;;1.90;1.58;;;;;;;4.90;77.32;99702.91;5034657;28;20046;-46
2024/02/13 08:36:54;;;;;;;1.45;1.35;;;;;;;4.95;76.44;99711.53;5031894;28;20085;-44
2024/02/13 08:39:22;;;;;;;1.05;0.95;;;;;;;5.00;76.46;99714.19;5035674;28;20450;-44
2024/02/13 08:41:51;;;;;;;4.43;2.25;;;;;;;5.02;76.97;99709.91;5032248;28;20037;-44
2024/02/13 08:44:19;;;;;;;2.92;1.30;;;;;;;5.04;77.15;99721.06;5034073;28;20060;-43
2024/02/13 08:46:46;;;;;;;2.95;1.77;;;;;;;5.07;76.40;99721.09;5039354;28;20045;-44
2024/02/13 08:49:13;;;;;;;2.78;2.58;;;;;;;5.11;77.49;99717.75;5033000;28;20059;-42
2024/02/13 08:51:42;;;;;;;3.35;1.45;;;;;;;5.16;76.38;99717.81;5039839;28;20055;-45
2024/02/13 08:54:11;;;;;;;4.05;1.63;;;;;;;5.21;77.57;99715.31;5045282;28;20052;-46
2024/02/13 08:56:40;;;;;;;1.70;1.60;;;;;;;5.26;76.13;99711.09;5041540;28;20045;-45
2024/02/13 08:59:08;;;;;;;1.67;1.38;;;;;;;5.29;77.00;99706.00;5045937;28;20147;-45
2024/02/13 09:01:35;;;;;;;1.42;1.33;;;;;;;5.34;77.09;99714.63;5041293;28;20059;-48
2024/02/13 09:04:02;;;;;;;2.20;1.70;;;;;;;5.40;76.49;99725.00;5044751;28;20052;-45
2024/02/13 09:06:31;;;;;;;3.42;2.10;;;;;;;5.45;76.28;99727.63;5042527;28;20084;-46
2024/02/13 09:08:59;;;;;;;2.65;2.45;;;;;;;5.52;76.58;99726.00;5045650;28;20127;-42
2024/02/13 09:11:28;;;;;;;5.47;2.22;;;;;;;5.61;77.53;99720.94;5045779;28;20045;-45
2024/02/13 09:13:56;;;;;;;3.22;2.90;;;;;;;5.61;77.14;99718.38;5046079;28;20049;-45
2024/02/13 09:16:22;;;;;;;2.47;2.28;;;;;;;5.70;75.90;99727.03;5046104;28;20049;-43
2024/02/13 09:18:49;;;;;;;1.27;1.27;;;;;;;5.72;76.46;99720.22;5048054;28;20056;-47
2024/02/13 09:21:16;;;;;;;3.42;1.55;;;;;;;5.76;76.07;99727.13;5043478;28;20068;-44
2024/02/13 09:23:43;;;;;;;3.00;2.80;;;;;;;5.80;75.91;99731.47;5041959;28;20783;-44
2024/02/13 09:26:10;;;;;;;2.05;1.95;;;;;;;5.79;77.19;99729.75;5039932;28;20148;-47
2024/02/13 09:28:37;;;;;;;1.75;1.65;;;;;;;5.81;76.37;99729.75;5036717;28;20050;-49
2024/02/13 09:31:04;;;;;;;3.05;2.35;;;;;;;5.82;77.44;99727.22;5041596;28;20049;-48
2024/02/13 09:33:30;;;;;;;1.77;1.63;;;;;;;5.82;76.98;99727.22;5042088;28;20053;-46
2024/02/13 09:35:57;;;;;;;1.58;1.42;;;;;;;5.83;77.18;99725.50;5046007;28;20119;-44
2024/02/13 09:38:24;;;;;;;2.50;0.57;;;;;;;5.89;76.24;99726.44;5045691;28;20628;-46
2024/02/13 09:40:51;;;;;;;1.90;1.73;;;;;;;5.91;76.40;99729.00;5040479;28;20748;-45
2024/02/13 09:43:18;;;;;;;1.60;1.50;;;;;;;5.93;76.62;99729.91;5035726;28;20057;-43
2024/02/13 09:45:45;;;;;;;2.22;1.33;;;;;;;5.92;77.18;99729.03;5036041;28;20045;-43
2024/02/13 09:48:20;;;;;;;2.40;1.88;;;;;;;5.94;76.17;99741.06;5041767;28;20056;-45
2024/02/13 09:50:51;;;;;;;3.67;1.40;;;;;;;5.94;76.70;99743.63;5042296;28;20048;-46
2024/02/13 09:53:27;;;;;;;1.55;1.45;;;;;;;5.90;77.61;99738.44;5036696;28;20057;-49
2024/02/13 09:55:58;;;;;;;2.33;1.85;;;;;;;5.92;77.82;99739.31;5039587;28;20075;-44
2024/02/13 09:58:26;;;;;;;2.53;1.90;;;;;;;5.96;77.34;99740.22;5039558;28;20052;-44
2024/02/13 10:00:53;;;;;;;5.13;2.53;;;;;;;5.97;77.37;99739.38;5024189;28;20431;-45
2024/02/13 10:03:26;;;;;;;3.13;1.45;;;;;;;5.95;78.45;99743.66;5040373;28;20164;-44
2024/02/13 10:05:55;;;;;;;3.13;2.35;;;;;;;5.94;77.51;99747.03;5045113;28;20057;-45
2024/02/13 10:08:27;;;;;;;1.58;1.48;;;;;;;5.95;78.71;99745.34;5042961;28;20115;-45
2024/02/13 10:11:01;;;;;;;1.83;1.73;;;;;;;5.93;78.03;99742.75;5045550;28;20059;-46
2024/02/13 10:13:32;;;;;;;5.05;3.15;;;;;;;5.95;78.41;99753.06;5040529;28;20044;-45
2024/02/13 10:16:02;;;;;;;2.13;2.03;;;;;;;5.96;77.81;99749.63;5035261;28;20053;-47
2024/02/13 10:18:29;;;;;;;2.13;1.83;;;;;;;5.89;78.90;99744.44;5039068;28;20085;-45
2024/02/13 10:21:00;;;;;;;2.53;1.38;;;;;;;5.92;78.30;99748.75;5036565;28;20172;-46
2024/02/13 10:23:29;;;;;;;2.10;1.95;;;;;;;5.90;79.68;99743.59;5037436;28;20051;-48
2024/02/13 10:25:57;;;;;;;4.43;2.33;;;;;;;5.92;78.62;99739.31;5031850;28;20049;-48
2024/02/13 10:28:25;;;;;;;2.00;1.80;;;;;;;5.96;78.91;99747.06;5041319;28;20094;-46
2024/02/13 10:30:52;;;;;;;2.15;1.85;;;;;;;5.95;78.93;99738.50;5037366;28;20052;-45
2024/02/13 10:33:19;;;;;;;1.15;0.65;;;;;;;5.96;79.46;99739.34;5043464;28;20651;-45
2024/02/13 10:35:52;;;;;;;1.38;0.90;;;;;;;6.01;79.37;99737.72;5043654;28;20387;-46
2024/02/13 10:38:25;;;;;;;2.15;1.58;;;;;;;6.04;79.32;99732.59;5044360;28;20048;-45
2024/02/13 10:40:57;;;;;;;1.75;1.55;;;;;;;6.06;78.70;99743.78;5040538;28;20092;-46
2024/02/13 10:43:27;;;;;;;4.35;1.90;;;;;;;6.11;79.37;99744.69;5041214;28;20053;-45
2024/02/13 10:45:57;;;;;;;1.30;1.20;;;;;;;6.19;78.72;99736.19;5042706;28;20684;-44
2024/02/13 10:48:37;;;;;;;2.10;1.60;;;;;;;6.22;79.29;99728.50;5037227;28;20063;-45
2024/02/13 10:51:07;;;;;;;1.92;1.83;;;;;;;6.26;78.97;99726.00;5040814;28;20068;-44
2024/02/13 10:53:35;;;;;;;1.48;1.38;;;;;;;6.30;79.37;99721.72;5039227;28;20053;-47
2024/02/13 10:56:03;;;;;;;2.28;1.80;;;;;;;6.34;79.57;99720.91;5043652;28;20065;-46
2024/02/13 10:58:30;;;;;;;1.90;1.80;;;;;;;6.36;79.99;99724.38;5041612;28;20055;-44
2024/02/13 11:01:02;;;;;;;3.67;2.10;;;;;;;6.41;79.48;99720.13;5037960;28;20045;-44
2024/02/13 11:03:30;;;;;;;3.33;1.85;;;;;;;6.46;80.50;99715.03;5037393;28;20094;-44
2024/02/13 11:05:57;;;;;;;3.63;1.48;;;;;;;6.54;79.18;99718.53;5043390;28;20853;-44
2024/02/13 11:08:24;;;;;;;2.15;0.88;;;;;;;6.62;79.97;99713.44;5042577;28;20411;-46
2024/02/13 11:10:53;;;;;;;1.98;1.45;;;;;;;6.67;81.24;99711.78;5044917;28;20142;-46
2024/02/13 11:13:21;;;;;;;1.67;1.58;;;;;;;6.77;79.86;99709.25;5036664;28;20171;-45
2024/02/13 11:15:48;;;;;;;2.97;2.25;;;;;;;6.85;80.09;99714.47;5038250;28;20457;-45
2024/02/13 11:18:16;;;;;;;2.72;2.17;;;;;;;6.85;81.34;99707.59;5040255;28;20048;-45
2024/02/13 11:20:44;;;;;;;2.10;1.90;;;;;;;6.88;80.52;99699.91;5040854;28;20494;-47
2024/02/13 11:23:15;;;;;;;3.90;2.78;;;;;;;6.92;80.02;99698.19;5040452;28;20136;-46
2024/02/13 11:26:01;;;;;;;2.40;2.20;;;;;;;6.92;80.69;99701.63;5041089;28;20072;-45
2024/02/13 11:28:36;;;;;;;1.92;1.83;;;;;;;6.98;81.25;99687.94;5044082;28;20045;-49
2024/02/13 11:31:14;;;;;;;2.28;1.88;;;;;;;6.97;81.13;99701.69;5041270;28;20083;-51
2024/02/13 11:34:03;;;;;;;1.98;1.73;;;;;;;7.02;80.33;99689.69;5042131;28;20076;-49
2024/02/13 11:36:34;;;;;;;1.85;1.63;;;;;;;7.10;81.48;99682.00;5037962;28;20056;-46
2024/02/13 11:39:06;;;;;;;2.45;2.35;;;;;;;7.12;80.50;99684.59;5038625;28;20061;-50
2024/02/13 11:41:34;;;;;;;1.83;1.15;;;;;;;7.10;81.56;99682.00;5037229;28;20056;-45
2024/02/13 11:46:52;;;;;;;2.60;1.55;;;;;;;7.33;79.97;99673.53;5067192;27;20393;-45
2024/02/13 11:49:19;;;;;;;0.90;0.65;;;;;;;7.19;80.38;99658.00;5042699;28;20071;-46
2024/02/13 11:51:47;;;;;;;2.60;1.25;;;;;;;7.17;81.79;99655.41;5037468;28;20131;-44
2024/02/13 11:54:14;;;;;;;1.67;0.90;;;;;;;7.25;81.49;99659.75;5034142;28;20052;-44